Wetterdaten: Woche 17.06.13 - 23.06.13 (KW25)
Datum Zeit Temp. Aussen +5cm Feuchte Auss Luftdruck Regen Sonnenschein Regendauer UV Solar Windben
17.06.2013 00:00 15,5 C 13,9 C 71 % 1015,9 hPa 0,0 l/m 0,00 h 0,00 h 0,0 UV-I 0 W/m 0,8 km/h (0 Bft)
17.06.2013 01:00 14,9 C 12,5 C 73 % 1016,0 hPa 0,0 l/m 0,00 h 0,00 h 0,0 UV-I 0 W/m 0,0 km/h (0 Bft)
17.06.2013 02:00 14,2 C 11,8 C 75 % 1015,9 hPa 0,0 l/m 0,00 h 0,00 h 0,0 UV-I 0 W/m 0,1 km/h (0 Bft)
17.06.2013 03:00 13,5 C 11,8 C 78 % 1015,5 hPa 0,0 l/m 0,00 h 0,00 h 0,0 UV-I 0 W/m 0,4 km/h (0 Bft)
17.06.2013 04:00 13,3 C 11,5 C 78 % 1015,0 hPa 0,0 l/m 0,00 h 0,00 h 0,0 UV-I 0 W/m 0,1 km/h (0 Bft)
17.06.2013 05:00 13,0 C 11,2 C 79 % 1014,8 hPa 0,0 l/m 0,00 h 0,00 h 0,0 UV-I 15 W/m 0,9 km/h (0 Bft)
17.06.2013 06:00 13,0 C 11,9 C 79 % 1015,1 hPa 0,0 l/m 0,00 h 0,00 h 0,0 UV-I 44 W/m 1,7 km/h (1 Bft)
17.06.2013 07:00 14,3 C 13,7 C 77 % 1014,8 hPa 0,0 l/m 0,13 h 0,00 h 0,0 UV-I 91 W/m 7,5 km/h (2 Bft)
17.06.2013 08:00 16,5 C 15,9 C 74 % 1014,4 hPa 0,0 l/m 0,97 h 0,00 h 0,7 UV-I 359 W/m 7,7 km/h (2 Bft)
17.06.2013 09:00 19,5 C 18,7 C 67 % 1014,4 hPa 0,0 l/m 0,83 h 0,00 h 1,3 UV-I 444 W/m 5,4 km/h (1 Bft)
17.06.2013 10:00 22,0 C 27,6 C 62 % 1014,5 hPa 0,0 l/m 0,97 h 0,00 h 2,6 UV-I 630 W/m 4,9 km/h (1 Bft)
17.06.2013 11:00 23,0 C 26,8 C 60 % 1013,9 hPa 0,0 l/m 0,97 h 0,00 h 3,3 UV-I 652 W/m 7,6 km/h (2 Bft)
17.06.2013 12:00 24,3 C 27,0 C 57 % 1013,1 hPa 0,0 l/m 0,93 h 0,00 h 3,4 UV-I 599 W/m 11,4 km/h (2 Bft)
17.06.2013 13:00 25,0 C 26,7 C 56 % 1013,1 hPa 0,0 l/m 0,33 h 0,00 h 2,4 UV-I 447 W/m 8,9 km/h (2 Bft)
17.06.2013 14:00 24,8 C 25,1 C 58 % 1012,4 hPa 0,0 l/m 0,00 h 0,00 h 1,4 UV-I 292 W/m 9,6 km/h (2 Bft)
17.06.2013 15:00 24,6 C 22,9 C 60 % 1013,6 hPa 0,0 l/m 0,00 h 0,30 h 0,0 UV-I 86 W/m 3,3 km/h (1 Bft)
17.06.2013 16:00 23,0 C 18,2 C 76 % 1012,3 hPa 1,2 l/m 0,03 h 0,97 h 1,1 UV-I 130 W/m 6,3 km/h (2 Bft)
17.06.2013 17:00 22,3 C 19,6 C 80 % 1011,0 hPa 0,0 l/m 0,43 h 0,00 h 1,1 UV-I 340 W/m 4,5 km/h (1 Bft)
17.06.2013 18:00 23,8 C 21,8 C 73 % 1010,6 hPa 0,0 l/m 0,28 h 0,00 h 0,8 UV-I 227 W/m 7,2 km/h (2 Bft)
17.06.2013 19:00 24,3 C 22,6 C 70 % 1010,9 hPa 0,0 l/m 0,00 h 0,00 h 0,0 UV-I 114 W/m 5,9 km/h (2 Bft)
17.06.2013 20:00 24,6 C 22,5 C 68 % 1011,2 hPa 0,0 l/m 0,00 h 0,00 h 0,0 UV-I 51 W/m 6,7 km/h (2 Bft)
17.06.2013 21:00 23,5 C 20,4 C 71 % 1012,0 hPa 0,0 l/m 0,00 h 0,00 h 0,0 UV-I 16 W/m 1,2 km/h (1 Bft)
17.06.2013 22:00 22,1 C 18,7 C 75 % 1012,6 hPa 0,0 l/m 0,00 h 0,00 h 0,0 UV-I 0 W/m 0,2 km/h (0 Bft)
17.06.2013 23:00 21,3 C 18,7 C 78 % 1012,1 hPa 0,0 l/m 0,00 h 0,17 h 0,0 UV-I 0 W/m 2,0 km/h (1 Bft)
18.06.2013 00:00 20,7 C 17,8 C 80 % 1012,7 hPa 0,0 l/m 0,00 h 0,13 h 0,0 UV-I 0 W/m 0,0 km/h (0 Bft)
18.06.2013 01:00 19,9 C 16,6 C 86 % 1013,9 hPa 0,2 l/m 0,00 h 0,40 h 0,0 UV-I 0 W/m 0,0 km/h (0 Bft)
18.06.2013 02:00 18,8 C 16,2 C 89 % 1014,3 hPa 0,0 l/m 0,00 h 0,00 h 0,0 UV-I 0 W/m 0,0 km/h (0 Bft)
18.06.2013 03:00 18,3 C 15,8 C 91 % 1013,1 hPa 0,0 l/m 0,00 h 0,00 h 0,0 UV-I 0 W/m 0,0 km/h (0 Bft)
18.06.2013 04:00 17,8 C 15,6 C 92 % 1013,3 hPa 0,0 l/m 0,00 h 0,00 h 0,0 UV-I 0 W/m 0,0 km/h (0 Bft)
18.06.2013 05:00 17,2 C 14,8 C 93 % 1013,6 hPa 0,0 l/m 0,00 h 0,00 h 0,0 UV-I 12 W/m 0,0 km/h (0 Bft)
18.06.2013 06:00 16,8 C 15,4 C 94 % 1013,8 hPa 0,0 l/m 0,00 h 0,00 h 0,0 UV-I 51 W/m 0,0 km/h (0 Bft)
18.06.2013 07:00 17,6 C 17,0 C 96 % 1014,4 hPa 0,0 l/m 0,13 h 0,00 h 0,0 UV-I 98 W/m 0,0 km/h (0 Bft)
18.06.2013 08:00 18,8 C 18,3 C 94 % 1014,5 hPa 0,0 l/m 0,97 h 0,00 h 0,8 UV-I 329 W/m 0,0 km/h (0 Bft)
18.06.2013 09:00 22,9 C 21,2 C 82 % 1014,7 hPa 0,0 l/m 0,97 h 0,00 h 1,6 UV-I 481 W/m 0,0 km/h (0 Bft)
18.06.2013 10:00 26,5 C 30,7 C 70 % 1014,8 hPa 0,0 l/m 0,97 h 0,00 h 2,8 UV-I 617 W/m 0,0 km/h (0 Bft)
18.06.2013 11:00 27,6 C 32,4 C 65 % 1014,9 hPa 0,0 l/m 0,98 h 0,00 h 3,9 UV-I 703 W/m 0,0 km/h (0 Bft)
18.06.2013 12:00 28,8 C 35,6 C 62 % 1014,8 hPa 0,0 l/m 0,97 h 0,00 h 4,9 UV-I 780 W/m 0,0 km/h (0 Bft)
18.06.2013 13:00 30,3 C 35,9 C 56 % 1014,4 hPa 0,0 l/m 0,97 h 0,00 h 3,4 UV-I 812 W/m 0,0 km/h (0 Bft)
18.06.2013 14:00 31,2 C 31,5 C 53 % 1014,2 hPa 0,0 l/m 0,97 h 0,00 h 5,0 UV-I 755 W/m 0,0 km/h (0 Bft)
18.06.2013 15:00 31,9 C 32,0 C 53 % 1013,8 hPa 0,0 l/m 0,97 h 0,00 h 4,5 UV-I 754 W/m 0,0 km/h (0 Bft)
18.06.2013 16:00 32,9 C 33,3 C 52 % 1013,4 hPa 0,0 l/m 0,97 h 0,00 h 3,5 UV-I 629 W/m 0,0 km/h (0 Bft)
18.06.2013 17:00 32,9 C 31,4 C 47 % 1013,3 hPa 0,0 l/m 0,97 h 0,00 h 2,5 UV-I 479 W/m 0,0 km/h (0 Bft)
18.06.2013 18:00 32,2 C 29,7 C 47 % 1012,8 hPa 0,0 l/m 0,37 h 0,00 h 2,0 UV-I 207 W/m 0,0 km/h (0 Bft)
18.06.2013 19:00 30,1 C 22,8 C 57 % 1012,7 hPa 0,0 l/m 0,00 h 0,00 h 0,9 UV-I 67 W/m 0,0 km/h (0 Bft)
18.06.2013 20:00 28,7 C 21,7 C 65 % 1012,7 hPa 0,0 l/m 0,00 h 0,00 h 0,0 UV-I 36 W/m 0,0 km/h (0 Bft)
18.06.2013 21:00 27,4 C 21,1 C 71 % 1012,8 hPa 0,0 l/m 0,00 h 0,00 h 0,0 UV-I 14 W/m 0,0 km/h (0 Bft)
18.06.2013 22:00 25,6 C 20,4 C 76 % 1013,0 hPa 0,0 l/m 0,00 h 0,00 h 0,0 UV-I 0 W/m 0,0 km/h (0 Bft)
18.06.2013 23:00 24,1 C 19,9 C 81 % 1013,3 hPa 0,0 l/m 0,00 h 0,00 h 0,0 UV-I 0 W/m 0,0 km/h (0 Bft)
19.06.2013 00:00 22,8 C 19,2 C 83 % 1013,3 hPa 0,0 l/m 0,00 h 0,00 h 0,0 UV-I 0 W/m 0,1 km/h (0 Bft)
19.06.2013 01:00 21,9 C 18,7 C 86 % 1013,0 hPa 0,0 l/m 0,00 h 0,00 h 0,0 UV-I 0 W/m 0,0 km/h (0 Bft)
19.06.2013 02:00 21,0 C 18,0 C 88 % 1012,6 hPa 0,0 l/m 0,00 h 0,00 h 0,0 UV-I 0 W/m 0,0 km/h (0 Bft)
19.06.2013 03:00 20,3 C 17,7 C 90 % 1012,2 hPa 0,0 l/m 0,00 h 0,00 h 0,0 UV-I 0 W/m 0,0 km/h (0 Bft)
19.06.2013 04:00 20,0 C 17,9 C 92 % 1011,9 hPa 0,0 l/m 0,00 h 0,00 h 0,0 UV-I 0 W/m 0,0 km/h (0 Bft)
19.06.2013 05:00 20,5 C 18,9 C 92 % 1011,3 hPa 0,0 l/m 0,00 h 0,13 h 0,0 UV-I 5 W/m 0,0 km/h (0 Bft)
19.06.2013 06:00 20,9 C 19,3 C 90 % 1011,6 hPa 0,0 l/m 0,00 h 0,03 h 0,0 UV-I 26 W/m 0,0 km/h (0 Bft)
19.06.2013 07:00 21,3 C 20,8 C 90 % 1011,6 hPa 0,0 l/m 0,00 h 0,00 h 0,0 UV-I 102 W/m 0,0 km/h (0 Bft)
19.06.2013 08:00 23,2 C 22,5 C 85 % 1012,8 hPa 0,0 l/m 0,00 h 0,00 h 0,0 UV-I 142 W/m 5,0 km/h (1 Bft)
19.06.2013 09:00 24,3 C 23,3 C 79 % 1013,1 hPa 0,0 l/m 0,00 h 0,00 h 0,6 UV-I 188 W/m 4,4 km/h (1 Bft)
19.06.2013 10:00 24,9 C 25,3 C 78 % 1012,1 hPa 0,0 l/m 0,07 h 0,00 h 1,4 UV-I 345 W/m 9,4 km/h (2 Bft)
19.06.2013 11:00 26,7 C 27,8 C 73 % 1011,3 hPa 0,0 l/m 0,87 h 0,00 h 2,6 UV-I 500 W/m 12,1 km/h (2 Bft)
19.06.2013 12:00 29,6 C 33,3 C 62 % 1010,8 hPa 0,0 l/m 0,93 h 0,00 h 4,3 UV-I 716 W/m 14,1 km/h (3 Bft)
19.06.2013 13:00 31,8 C 36,0 C 54 % 1010,3 hPa 0,0 l/m 0,97 h 0,00 h 3,3 UV-I 802 W/m 14,6 km/h (3 Bft)
19.06.2013 14:00 32,6 C 32,9 C 52 % 1010,1 hPa 0,0 l/m 0,83 h 0,00 h 4,5 UV-I 713 W/m 10,6 km/h (2 Bft)
19.06.2013 15:00 32,6 C 33,0 C 52 % 1010,3 hPa 0,0 l/m 0,82 h 0,00 h 3,4 UV-I 593 W/m 12,1 km/h (2 Bft)
19.06.2013 16:00 30,9 C 31,0 C 62 % 1010,8 hPa 0,0 l/m 0,25 h 0,00 h 1,8 UV-I 365 W/m 17,2 km/h (3 Bft)
19.06.2013 17:00 28,3 C 28,1 C 73 % 1011,0 hPa 0,0 l/m 0,00 h 0,00 h 0,9 UV-I 227 W/m 16,2 km/h (3 Bft)
19.06.2013 18:00 26,8 C 26,4 C 78 % 1010,7 hPa 0,0 l/m 0,00 h 0,00 h 0,5 UV-I 173 W/m 19,5 km/h (3 Bft)
19.06.2013 19:00 26,1 C 25,4 C 78 % 1010,6 hPa 0,0 l/m 0,00 h 0,00 h 0,0 UV-I 103 W/m 18,7 km/h (3 Bft)
19.06.2013 20:00 25,4 C 24,3 C 76 % 1010,7 hPa 0,0 l/m 0,00 h 0,00 h 0,0 UV-I 52 W/m 13,6 km/h (3 Bft)
19.06.2013 21:00 24,6 C 23,1 C 78 % 1010,6 hPa 0,0 l/m 0,00 h 0,00 h 0,0 UV-I 15 W/m 8,1 km/h (2 Bft)
19.06.2013 22:00 23,9 C 21,5 C 80 % 1011,6 hPa 0,0 l/m 0,00 h 0,00 h 0,0 UV-I 0 W/m 0,3 km/h (0 Bft)
19.06.2013 23:00 23,1 C 21,0 C 83 % 1012,3 hPa 0,0 l/m 0,00 h 0,00 h 0,0 UV-I 0 W/m 0,6 km/h (0 Bft)
20.06.2013 00:00 22,4 C 20,8 C 83 % 1012,4 hPa 0,0 l/m 0,00 h 0,00 h 0,0 UV-I 0 W/m 2,5 km/h (1 Bft)
20.06.2013 01:00 21,8 C 20,0 C 83 % 1012,9 hPa 0,0 l/m 0,00 h 0,00 h 0,0 UV-I 0 W/m 1,7 km/h (1 Bft)
20.06.2013 02:00 21,3 C 19,5 C 84 % 1013,4 hPa 0,0 l/m 0,00 h 0,00 h 0,0 UV-I 0 W/m 0,6 km/h (0 Bft)
20.06.2013 03:00 20,8 C 19,0 C 86 % 1013,0 hPa 0,0 l/m 0,00 h 0,00 h 0,0 UV-I 0 W/m 3,1 km/h (1 Bft)
20.06.2013 04:00 20,1 C 18,9 C 89 % 1012,2 hPa 0,0 l/m 0,00 h 0,00 h 0,0 UV-I 0 W/m 13,0 km/h (3 Bft)
20.06.2013 05:00 20,0 C 18,5 C 90 % 1013,1 hPa 0,0 l/m 0,00 h 0,00 h 0,0 UV-I 13 W/m 0,4 km/h (0 Bft)
20.06.2013 06:00 19,8 C 18,9 C 92 % 1011,9 hPa 0,0 l/m 0,00 h 0,00 h 0,0 UV-I 39 W/m 3,2 km/h (1 Bft)
20.06.2013 07:00 20,5 C 20,7 C 92 % 1012,4 hPa 0,0 l/m 0,67 h 0,00 h 0,0 UV-I 182 W/m 0,9 km/h (0 Bft)
20.06.2013 08:00 22,5 C 22,7 C 86 % 1012,6 hPa 0,0 l/m 0,33 h 0,00 h 0,5 UV-I 244 W/m 2,0 km/h (1 Bft)
20.06.2013 09:00 22,8 C 23,0 C 85 % 1013,0 hPa 0,0 l/m 0,18 h 0,00 h 0,6 UV-I 227 W/m 1,2 km/h (1 Bft)
20.06.2013 10:00 22,8 C 20,8 C 87 % 1012,6 hPa 0,2 l/m 0,00 h 0,80 h 0,5 UV-I 115 W/m 0,1 km/h (0 Bft)
20.06.2013 11:00 22,6 C 20,8 C 89 % 1011,9 hPa 0,0 l/m 0,00 h 0,52 h 0,7 UV-I 131 W/m 6,9 km/h (2 Bft)
20.06.2013 12:00 21,7 C 20,2 C 90 % 1012,4 hPa 0,0 l/m 0,00 h 0,23 h 0,0 UV-I 60 W/m 8,7 km/h (2 Bft)
20.06.2013 13:00 20,8 C 18,3 C 91 % 1013,3 hPa 0,8 l/m 0,00 h 0,97 h 0,0 UV-I 9 W/m 7,3 km/h (2 Bft)
20.06.2013 14:00 19,2 C 17,0 C 93 % 1012,2 hPa 1,0 l/m 0,00 h 0,98 h 0,0 UV-I 15 W/m 6,7 km/h (2 Bft)
20.06.2013 15:00 19,2 C 18,4 C 96 % 1011,0 hPa 0,4 l/m 0,00 h 0,03 h 1,3 UV-I 213 W/m 0,2 km/h (0 Bft)
20.06.2013 16:00 21,2 C 21,4 C 91 % 1011,2 hPa 0,2 l/m 0,80 h 0,00 h 2,5 UV-I 561 W/m 4,4 km/h (1 Bft)
20.06.2013 17:00 22,7 C 22,3 C 83 % 1010,5 hPa 0,0 l/m 0,98 h 0,00 h 2,0 UV-I 536 W/m 7,1 km/h (2 Bft)
20.06.2013 18:00 22,9 C 21,7 C 78 % 1009,5 hPa 0,0 l/m 0,33 h 0,00 h 0,8 UV-I 199 W/m 4,0 km/h (1 Bft)
20.06.2013 19:00 23,3 C 21,4 C 77 % 1010,3 hPa 0,0 l/m 0,00 h 0,00 h 0,0 UV-I 61 W/m 5,3 km/h (1 Bft)
20.06.2013 20:00 23,2 C 21,0 C 79 % 1010,1 hPa 0,0 l/m 0,00 h 0,00 h 0,0 UV-I 49 W/m 3,7 km/h (1 Bft)
20.06.2013 21:00 22,5 C 19,1 C 81 % 1009,1 hPa 0,0 l/m 0,00 h 0,00 h 0,0 UV-I 14 W/m 0,0 km/h (0 Bft)
20.06.2013 22:00 21,2 C 18,0 C 86 % 1008,7 hPa 0,0 l/m 0,00 h 0,00 h 0,0 UV-I 0 W/m 0,0 km/h (0 Bft)
20.06.2013 23:00 20,2 C 17,7 C 90 % 1010,5 hPa 1,8 l/m 0,00 h 0,80 h 0,0 UV-I 0 W/m 10,7 km/h (2 Bft)
21.06.2013 00:00 17,5 C 15,4 C 93 % 1010,7 hPa 4,4 l/m 0,00 h 0,98 h 0,0 UV-I 0 W/m 10,5 km/h (2 Bft)
21.06.2013 01:00 16,2 C 14,6 C 95 % 1009,3 hPa 1,2 l/m 0,00 h 0,97 h 0,0 UV-I 0 W/m 1,1 km/h (0 Bft)
21.06.2013 02:00 16,1 C 14,6 C 96 % 1008,3 hPa 0,2 l/m 0,00 h 0,07 h 0,0 UV-I 0 W/m 1,4 km/h (1 Bft)
21.06.2013 03:00 15,7 C 14,2 C 97 % 1008,5 hPa 0,0 l/m 0,00 h 0,00 h 0,0 UV-I 0 W/m 4,7 km/h (1 Bft)
21.06.2013 04:00 15,3 C 14,0 C 97 % 1008,7 hPa 0,0 l/m 0,00 h 0,00 h 0,0 UV-I 0 W/m 4,3 km/h (1 Bft)
21.06.2013 05:00 15,2 C 14,2 C 98 % 1008,8 hPa 0,0 l/m 0,00 h 0,00 h 0,0 UV-I 9 W/m 5,4 km/h (1 Bft)
21.06.2013 06:00 15,4 C 14,2 C 98 % 1009,1 hPa 0,0 l/m 0,00 h 0,63 h 0,0 UV-I 19 W/m 8,6 km/h (2 Bft)
21.06.2013 07:00 15,5 C 14,5 C 97 % 1009,2 hPa 0,2 l/m 0,00 h 0,17 h 0,0 UV-I 74 W/m 9,6 km/h (2 Bft)
21.06.2013 08:00 16,1 C 15,5 C 94 % 1009,2 hPa 0,0 l/m 0,00 h 0,00 h 0,0 UV-I 148 W/m 14,4 km/h (3 Bft)
21.06.2013 09:00 16,7 C 16,3 C 90 % 1009,6 hPa 0,0 l/m 0,10 h 0,00 h 0,8 UV-I 241 W/m 15,9 km/h (3 Bft)
21.06.2013 10:00 17,9 C 18,8 C 86 % 1010,1 hPa 0,0 l/m 0,43 h 0,00 h 1,3 UV-I 400 W/m 17,0 km/h (3 Bft)
21.06.2013 11:00 18,0 C 18,0 C 86 % 1010,7 hPa 0,0 l/m 0,07 h 0,07 h 1,1 UV-I 276 W/m 14,0 km/h (3 Bft)
21.06.2013 12:00 18,2 C 18,6 C 85 % 1011,1 hPa 0,0 l/m 0,00 h 0,00 h 1,8 UV-I 359 W/m 14,8 km/h (3 Bft)
21.06.2013 13:00 18,7 C 18,5 C 86 % 1011,4 hPa 0,2 l/m 0,10 h 0,50 h 1,6 UV-I 288 W/m 8,5 km/h (2 Bft)
21.06.2013 14:00 19,3 C 18,8 C 88 % 1011,5 hPa 0,0 l/m 0,77 h 0,20 h 3,4 UV-I 668 W/m 13,0 km/h (3 Bft)
21.06.2013 15:00 20,7 C 21,3 C 81 % 1011,8 hPa 0,0 l/m 0,58 h 0,00 h 3,0 UV-I 623 W/m 16,9 km/h (3 Bft)
21.06.2013 16:00 20,5 C 19,0 C 79 % 1012,4 hPa 0,4 l/m 0,30 h 0,43 h 2,4 UV-I 311 W/m 16,8 km/h (3 Bft)
21.06.2013 17:00 18,1 C 16,8 C 90 % 1012,8 hPa 0,0 l/m 0,00 h 0,13 h 0,7 UV-I 197 W/m 11,6 km/h (2 Bft)
21.06.2013 18:00 19,1 C 18,2 C 83 % 1012,9 hPa 0,0 l/m 0,23 h 0,00 h 0,6 UV-I 246 W/m 13,9 km/h (3 Bft)
21.06.2013 19:00 19,1 C 18,0 C 82 % 1013,4 hPa 0,0 l/m 0,00 h 0,00 h 0,0 UV-I 109 W/m 13,6 km/h (3 Bft)
21.06.2013 20:00 18,3 C 17,0 C 82 % 1013,9 hPa 0,0 l/m 0,10 h 0,00 h 0,0 UV-I 63 W/m 9,9 km/h (2 Bft)
21.06.2013 21:00 17,8 C 16,3 C 84 % 1014,4 hPa 0,0 l/m 0,00 h 0,00 h 0,0 UV-I 13 W/m 8,3 km/h (2 Bft)
21.06.2013 22:00 17,1 C 15,5 C 86 % 1014,9 hPa 0,0 l/m 0,00 h 0,00 h 0,0 UV-I 0 W/m 7,3 km/h (2 Bft)
21.06.2013 23:00 16,2 C 14,6 C 86 % 1015,3 hPa 0,0 l/m 0,00 h 0,00 h 0,0 UV-I 0 W/m 3,6 km/h (1 Bft)
22.06.2013 00:00 15,4 C 14,0 C 88 % 1015,4 hPa 0,0 l/m 0,00 h 0,00 h 0,0 UV-I 0 W/m 2,6 km/h (1 Bft)
22.06.2013 01:00 15,1 C 13,9 C 91 % 1015,3 hPa 0,0 l/m 0,00 h 0,00 h 0,0 UV-I 0 W/m 3,8 km/h (1 Bft)
22.06.2013 02:00 14,8 C 13,5 C 93 % 1015,1 hPa 0,0 l/m 0,00 h 0,00 h 0,0 UV-I 0 W/m 4,1 km/h (1 Bft)
22.06.2013 03:00 15,0 C 14,3 C 93 % 1014,8 hPa 0,0 l/m 0,00 h 0,00 h 0,0 UV-I 0 W/m 4,2 km/h (1 Bft)
22.06.2013 04:00 14,9 C 13,2 C 91 % 1014,6 hPa 0,0 l/m 0,00 h 0,00 h 0,0 UV-I 0 W/m 1,8 km/h (1 Bft)
22.06.2013 05:00 14,4 C 13,5 C 93 % 1014,6 hPa 0,0 l/m 0,00 h 0,00 h 0,0 UV-I 11 W/m 2,5 km/h (1 Bft)
22.06.2013 06:00 14,9 C 14,5 C 93 % 1014,5 hPa 0,0 l/m 0,00 h 0,00 h 0,0 UV-I 29 W/m 3,6 km/h (1 Bft)
22.06.2013 07:00 15,7 C 15,4 C 92 % 1014,4 hPa 0,0 l/m 0,00 h 0,00 h 0,0 UV-I 73 W/m 5,7 km/h (1 Bft)
22.06.2013 08:00 16,3 C 14,9 C 91 % 1014,4 hPa 0,2 l/m 0,00 h 0,53 h 0,0 UV-I 104 W/m 8,2 km/h (2 Bft)
22.06.2013 09:00 16,0 C 14,4 C 93 % 1014,3 hPa 1,2 l/m 0,00 h 0,93 h 0,0 UV-I 85 W/m 8,8 km/h (2 Bft)
22.06.2013 10:00 16,4 C 15,8 C 96 % 1013,9 hPa 0,6 l/m 0,10 h 0,23 h 1,2 UV-I 287 W/m 5,5 km/h (1 Bft)
22.06.2013 11:00 19,1 C 19,9 C 88 % 1013,2 hPa 0,0 l/m 0,53 h 0,00 h 3,1 UV-I 561 W/m 10,2 km/h (2 Bft)
22.06.2013 12:00 20,5 C 22,7 C 78 % 1012,8 hPa 0,0 l/m 0,53 h 0,00 h 3,2 UV-I 559 W/m 15,1 km/h (3 Bft)
22.06.2013 13:00 21,4 C 22,6 C 70 % 1012,2 hPa 0,0 l/m 0,37 h 0,00 h 3,0 UV-I 478 W/m 17,8 km/h (3 Bft)
22.06.2013 14:00 21,2 C 21,0 C 70 % 1011,8 hPa 0,0 l/m 0,10 h 0,07 h 2,0 UV-I 316 W/m 19,6 km/h (3 Bft)
22.06.2013 15:00 19,9 C 19,2 C 74 % 1011,8 hPa 0,0 l/m 0,00 h 0,37 h 1,3 UV-I 261 W/m 18,1 km/h (3 Bft)
22.06.2013 16:00 19,8 C 19,4 C 72 % 1011,6 hPa 0,0 l/m 0,00 h 0,00 h 0,9 UV-I 228 W/m 13,7 km/h (3 Bft)
22.06.2013 17:00 19,5 C 18,7 C 72 % 1011,1 hPa 0,0 l/m 0,00 h 0,00 h 0,0 UV-I 155 W/m 11,8 km/h (2 Bft)
22.06.2013 18:00 19,0 C 18,2 C 72 % 1011,0 hPa 0,0 l/m 0,00 h 0,03 h 0,0 UV-I 122 W/m 11,7 km/h (2 Bft)
22.06.2013 19:00 18,9 C 17,6 C 72 % 1010,9 hPa 0,0 l/m 0,00 h 0,00 h 0,0 UV-I 60 W/m 16,3 km/h (3 Bft)
22.06.2013 20:00 18,1 C 16,8 C 76 % 1010,8 hPa 0,0 l/m 0,03 h 0,00 h 0,0 UV-I 46 W/m 16,2 km/h (3 Bft)
22.06.2013 21:00 17,0 C 15,7 C 82 % 1010,8 hPa 0,0 l/m 0,00 h 0,00 h 0,0 UV-I 14 W/m 12,7 km/h (3 Bft)
22.06.2013 22:00 16,8 C 15,7 C 83 % 1010,8 hPa 0,0 l/m 0,00 h 0,00 h 0,0 UV-I 0 W/m 13,3 km/h (3 Bft)
22.06.2013 23:00 16,8 C 15,6 C 83 % 1010,6 hPa 0,0 l/m 0,00 h 0,07 h 0,0 UV-I 0 W/m 11,8 km/h (2 Bft)
23.06.2013 00:00 15,9 C 13,8 C 87 % 1010,6 hPa 0,2 l/m 0,00 h 0,37 h 0,0 UV-I 0 W/m 12,0 km/h (2 Bft)
23.06.2013 01:00 13,6 C 12,1 C 92 % 1010,8 hPa 0,2 l/m 0,00 h 0,47 h 0,0 UV-I 0 W/m 7,9 km/h (2 Bft)
23.06.2013 02:00 12,8 C 11,4 C 94 % 1010,6 hPa 0,2 l/m 0,00 h 0,57 h 0,0 UV-I 0 W/m 6,6 km/h (2 Bft)
23.06.2013 03:00 12,3 C 11,2 C 95 % 1010,3 hPa 0,2 l/m 0,00 h 0,23 h 0,0 UV-I 0 W/m 6,3 km/h (2 Bft)
23.06.2013 04:00 12,3 C 11,2 C 96 % 1010,1 hPa 0,0 l/m 0,00 h 0,07 h 0,0 UV-I 0 W/m 8,9 km/h (2 Bft)
23.06.2013 05:00 12,6 C 11,5 C 95 % 1010,1 hPa 0,0 l/m 0,00 h 0,10 h 0,0 UV-I 8 W/m 12,1 km/h (2 Bft)
23.06.2013 06:00 12,9 C 11,8 C 94 % 1010,1 hPa 0,0 l/m 0,00 h 0,57 h 0,0 UV-I 32 W/m 11,4 km/h (2 Bft)
23.06.2013 07:00 12,9 C 11,7 C 94 % 1010,1 hPa 0,2 l/m 0,00 h 0,40 h 0,0 UV-I 74 W/m 13,2 km/h (3 Bft)
23.06.2013 08:00 13,8 C 13,4 C 90 % 1010,3 hPa 0,0 l/m 0,13 h 0,13 h 0,0 UV-I 162 W/m 14,1 km/h (3 Bft)
23.06.2013 09:00 14,4 C 14,3 C 87 % 1010,5 hPa 0,0 l/m 0,13 h 0,00 h 0,9 UV-I 213 W/m 13,6 km/h (3 Bft)
23.06.2013 10:00 16,0 C 16,6 C 80 % 1010,7 hPa 0,0 l/m 0,30 h 0,00 h 1,3 UV-I 338 W/m 17,0 km/h (3 Bft)
23.06.2013 11:00 16,0 C 15,8 C 78 % 1010,9 hPa 0,0 l/m 0,10 h 0,03 h 1,4 UV-I 252 W/m 17,9 km/h (3 Bft)
23.06.2013 12:00 16,3 C 16,9 C 78 % 1011,3 hPa 0,0 l/m 0,40 h 0,00 h 2,3 UV-I 406 W/m 22,1 km/h (4 Bft)
23.06.2013 13:00 16,2 C 17,9 C 82 % 1011,6 hPa 0,0 l/m 0,67 h 0,17 h 2,9 UV-I 520 W/m 25,8 km/h (4 Bft)
23.06.2013 14:00 16,6 C 17,4 C 80 % 1011,9 hPa 0,0 l/m 0,30 h 0,10 h 2,5 UV-I 408 W/m 19,6 km/h (3 Bft)
23.06.2013 15:00 16,6 C 16,7 C 82 % 1012,2 hPa 0,0 l/m 0,43 h 0,37 h 2,3 UV-I 434 W/m 16,9 km/h (3 Bft)
23.06.2013 16:00 16,9 C 17,2 C 81 % 1012,1 hPa 0,0 l/m 0,25 h 0,20 h 1,7 UV-I 341 W/m 15,3 km/h (3 Bft)
23.06.2013 17:00 17,3 C 17,2 C 78 % 1012,1 hPa 0,0 l/m 0,50 h 0,03 h 1,3 UV-I 403 W/m 17,5 km/h (3 Bft)
23.06.2013 18:00 17,4 C 17,0 C 77 % 1012,1 hPa 0,0 l/m 0,20 h 0,00 h 0,7 UV-I 217 W/m 15,4 km/h (3 Bft)
23.06.2013 19:00 17,3 C 16,4 C 76 % 1012,1 hPa 0,0 l/m 0,00 h 0,00 h 0,0 UV-I 96 W/m 14,0 km/h (3 Bft)
23.06.2013 20:00 17,0 C 15,8 C 76 % 1012,2 hPa 0,0 l/m 0,00 h 0,00 h 0,0 UV-I 48 W/m 13,0 km/h (3 Bft)
23.06.2013 21:00 15,9 C 14,1 C 81 % 1012,8 hPa 0,0 l/m 0,00 h 0,00 h 0,0 UV-I 11 W/m 14,5 km/h (3 Bft)
23.06.2013 22:00 14,6 C 13,3 C 87 % 1013,5 hPa 0,0 l/m 0,00 h 0,00 h 0,0 UV-I 0 W/m 7,5 km/h (2 Bft)
23.06.2013 23:00 14,2 C 13,2 C 88 % 1013,8 hPa 0,0 l/m 0,00 h 0,00 h 0,0 UV-I 0 W/m 4,8 km/h (1 Bft)
Min-Datum _ 23.06.13 17.06.13 18.06.13 21.06.13 - - - - - 17.06.13
_ Min-Zeit 04:10 05:34 17:50 02:26 - - - - - 00:02
Minimum _ 12,2 C 10,7 C 42 % 1008,0 hPa - - - - - 0,0 km/h (0 Bft)
Max-Datum _ 18.06.13 18.06.13 21.06.13 17.06.13 21.06.13 17.06.13 17.06.13 23.06.13 22.06.13 23.06.13
_ Max-Zeit 16:48 13:20 05:26 01:06 00:24 07:52 15:42 14:02 13:10 13:50
Maximum _ 33,4 C 38,4 C 98 % 1016,1 hPa 4,4 l/m 0,03 h 0,03 h 5,9 UV-I 1127 W/m 51,5 km/h
W-SW (7 Bft)
Durchschnitt _ 20,2 C 19,2 C 81 % 1012,3 hPa #15,4 l/m #31:52 h #16:43 h 2,0 UV-I 256 W/m 7,1 km/h (2 Bft)
© 2013 W. Hausmann